Time;durP1;ratioP1;P1;durP2;ratioP2;P2;SDS_P1;SDS_P2;PMS_P1;PMS_P2;Temp;Humidity;BMP_temperature;BMP_pressure;BME280_temperature;BME280_humidity;BME280_pressure;Samples;Min_cycle;Max_cycle;Signal;HPM_P1;HPM_P2
2022/12/30 00:00:27;;;;;;;19.42;4.20;;;5.60;99.90;;;;;;5106975;27;20056;-50
2022/12/30 00:02:52;;;;;;;25.70;5.10;;;5.70;99.90;;;;;;5132836;27;20092;-45
2022/12/30 00:05:18;;;;;;;27.33;4.78;;;5.70;99.90;;;;;;5116551;27;20792;-47
2022/12/30 00:07:44;;;;;;;18.80;4.10;;;5.80;99.90;;;;;;5097226;27;20050;-47
2022/12/30 00:10:11;;;;;;;18.23;5.05;;;5.80;99.90;;;;;;5125805;27;20730;-44
2022/12/30 00:35:03;;;;;;;18.98;4.88;;;5.40;99.90;;;;;;5135238;27;20549;-47
2022/12/30 00:37:29;;;;;;;30.08;5.15;;;5.50;99.90;;;;;;5123886;27;20038;-44
2022/12/30 00:39:54;;;;;;;26.52;4.70;;;5.40;99.90;;;;;;5102979;27;20073;-45
2022/12/30 00:45:05;;;;;;;24.45;5.00;;;5.50;99.90;;;;;;5119892;27;20058;-45
2022/12/30 00:47:30;;;;;;;27.02;4.53;;;5.50;99.90;;;;;;5135947;27;20083;-48
2022/12/30 00:58:09;;;;;;;23.45;4.38;;;5.40;99.90;;;;;;5120882;27;20089;-45
2022/12/30 01:00:35;;;;;;;26.70;4.30;;;5.40;99.90;;;;;;5136037;27;20126;-51
2022/12/30 01:03:00;;;;;;;26.42;4.43;;;5.30;99.90;;;;;;5135767;27;20436;-49
2022/12/30 01:05:26;;;;;;;25.58;5.03;;;5.30;99.90;;;;;;5136826;27;20484;-45
2022/12/30 01:07:51;;;;;;;18.73;3.85;;;5.30;99.90;;;;;;5103280;27;20400;-49
2022/12/30 01:10:17;;;;;;;26.40;4.70;;;5.30;99.90;;;;;;5136027;27;20395;-46
2022/12/30 01:12:43;;;;;;;21.27;5.00;;;5.30;99.90;;;;;;5121384;27;20034;-45
2022/12/30 01:15:09;;;;;;;23.70;4.95;;;5.30;99.90;;;;;;5128037;27;20075;-47
2022/12/30 01:17:35;;;;;;;25.52;4.65;;;5.30;99.90;;;;;;5133719;27;20051;-47
2022/12/30 01:20:01;;;;;;;28.77;6.47;;;5.30;99.90;;;;;;5131430;27;20051;-48
2022/12/30 01:22:27;;;;;;;29.85;4.47;;;5.30;99.90;;;;;;5138115;27;20035;-46
2022/12/30 01:24:52;;;;;;;22.38;5.00;;;5.20;99.90;;;;;;5139887;27;20045;-47
2022/12/30 01:27:18;;;;;;;30.20;4.80;;;5.30;99.90;;;;;;5124396;27;20050;-45
2022/12/30 01:29:44;;;;;;;24.48;4.85;;;5.30;99.90;;;;;;5117464;27;20187;-46
2022/12/30 01:32:21;;;;;;;26.35;4.38;;;5.30;99.90;;;;;;5126514;27;20477;-47
2022/12/30 01:34:47;;;;;;;29.52;5.97;;;5.30;99.90;;;;;;5138421;27;20078;-47
2022/12/30 01:37:14;;;;;;;29.48;6.13;;;5.30;99.90;;;;;;5119551;27;20587;-44
2022/12/30 01:39:40;;;;;;;24.35;4.80;;;5.30;99.90;;;;;;5132054;27;20514;-46
2022/12/30 01:42:27;;;;;;;32.05;5.85;;;5.40;99.90;;;;;;5099479;27;20058;-49
2022/12/30 01:45:16;;;;;;;27.30;4.63;;;5.40;99.90;;;;;;5123289;27;20042;-47
2022/12/30 01:47:53;;;;;;;26.90;4.20;;;5.60;99.90;;;;;;5138369;27;20662;-47
2022/12/30 01:50:47;;;;;;;29.40;5.97;;;5.50;99.90;;;;;;5121234;27;20131;-46
2022/12/30 01:53:19;;;;;;;34.53;5.03;;;5.50;99.90;;;;;;5134784;27;20043;-47
2022/12/30 01:56:21;;;;;;;23.88;4.00;;;5.50;99.90;;;;;;5135360;27;20031;-45
2022/12/30 01:58:58;;;;;;;21.73;5.28;;;5.60;99.90;;;;;;5104040;27;20139;-45
2022/12/30 02:01:24;;;;;;;27.65;5.05;;;5.60;99.90;;;;;;5132482;27;20043;-46
2022/12/30 02:03:57;;;;;;;29.08;4.55;;;5.70;99.90;;;;;;5118441;27;20097;-46
2022/12/30 02:06:30;;;;;;;30.77;4.95;;;5.70;99.90;;;;;;5113087;27;20426;-50
2022/12/30 02:08:56;;;;;;;27.88;5.35;;;5.70;99.90;;;;;;5131894;27;20515;-47
2022/12/30 02:11:23;;;;;;;19.17;4.22;;;5.70;99.90;;;;;;5132521;27;20481;-49
2022/12/30 02:13:48;;;;;;;25.58;4.13;;;5.70;99.90;;;;;;5118057;27;20071;-45
2022/12/30 02:16:17;;;;;;;28.80;5.22;;;5.70;99.90;;;;;;5132086;27;20473;-44
2022/12/30 02:19:01;;;;;;;30.02;5.28;;;5.70;99.90;;;;;;5131918;27;20043;-49
2022/12/30 02:22:06;;;;;;;31.20;5.85;;;5.60;99.90;;;;;;5099567;27;20100;-49
2022/12/30 02:24:31;;;;;;;;;;;5.50;99.90;;;;;;5046156;28;20055;-45
2022/12/30 02:27:15;;;;;;;24.48;4.95;;;5.40;99.90;;;;;;5071871;28;19920;-46
2022/12/30 02:29:40;;;;;;;;;;;5.40;99.90;;;;;;5041396;28;20545;-51
2022/12/30 02:32:29;;;;;;;26.10;4.97;;;5.40;99.90;;;;;;5074018;28;19919;-47
2022/12/30 02:35:39;;;;;;;22.63;4.25;;;5.30;99.90;;;;;;5073609;28;20549;-45
2022/12/30 02:38:38;;;;;;;27.98;5.85;;;5.30;99.90;;;;;;5013867;28;20062;-47
2022/12/30 02:44:48;;;;;;;25.35;4.53;;;5.30;99.90;;;;;;5013895;28;20068;-45
2022/12/30 02:47:30;;;;;;;26.20;5.22;;;5.20;99.90;;;;;;4997799;28;20057;-45
2022/12/30 02:52:51;;;;;;;29.67;5.65;;;5.20;99.90;;;;;;5012944;28;20115;-48
2022/12/30 02:55:18;;;;;;;34.20;5.55;;;5.30;99.90;;;;;;5037640;28;20521;-45
2022/12/30 02:57:43;;;;;;;21.45;4.32;;;5.20;99.90;;;;;;5052387;28;20502;-45
2022/12/30 03:06:20;;;;;;;28.67;4.90;;;5.10;99.90;;;;;;5058183;28;20404;-45
2022/12/30 03:08:50;;;;;;;31.48;5.65;;;5.00;99.90;;;;;;5062587;28;20049;-47
2022/12/30 03:11:17;;;;;;;27.52;5.25;;;5.00;99.90;;;;;;5071352;28;20111;-44
2022/12/30 03:13:50;;;;;;;24.48;4.70;;;4.90;99.90;;;;;;5067306;27;20044;-46
2022/12/30 03:16:53;;;;;;;25.85;5.13;;;4.90;99.90;;;;;;5130049;27;20050;-49
2022/12/30 03:19:21;;;;;;;34.10;5.70;;;4.90;99.90;;;;;;5037745;28;20387;-46
2022/12/30 03:21:50;;;;;;;32.10;6.90;;;4.90;99.90;;;;;;5024877;28;20099;-45
2022/12/30 03:27:06;;;;;;;25.58;5.65;;;4.70;99.90;;;;;;5047452;28;20148;-45
2022/12/30 03:29:59;;;;;;;25.75;5.10;;;4.80;99.90;;;;;;5025152;28;20061;-48
2022/12/30 03:32:26;;;;;;;27.63;6.78;;;4.70;99.90;;;;;;5039338;28;20470;-49
2022/12/30 03:34:51;;;;;;;27.77;5.30;;;4.70;99.90;;;;;;5041171;28;20057;-47
2022/12/30 03:37:26;;;;;;;25.88;5.45;;;4.60;99.90;;;;;;5045170;28;20574;-46
2022/12/30 03:39:58;;;;;;;27.30;6.18;;;4.50;99.90;;;;;;5046596;28;20079;-45
2022/12/30 03:42:24;;;;;;;32.90;6.97;;;4.60;99.90;;;;;;5048904;28;20049;-44
2022/12/30 03:44:50;;;;;;;25.42;5.38;;;4.40;99.90;;;;;;5029082;28;20489;-46
2022/12/30 03:47:18;;;;;;;35.80;6.45;;;4.50;99.90;;;;;;5044002;28;20466;-49
2022/12/30 03:49:44;;;;;;;27.30;5.95;;;4.40;99.90;;;;;;5033766;28;20471;-46
2022/12/30 03:52:11;;;;;;;19.00;5.40;;;4.50;99.90;;;;;;5016011;28;20044;-47
2022/12/30 03:54:37;;;;;;;25.13;5.43;;;4.30;99.90;;;;;;5075401;27;20485;-49
2022/12/30 03:57:03;;;;;;;26.48;5.25;;;4.40;99.90;;;;;;5099917;27;20095;-49
2022/12/30 03:59:28;;;;;;;23.52;5.80;;;4.40;99.90;;;;;;5116807;27;20039;-45
2022/12/30 04:01:54;;;;;;;26.80;6.07;;;4.50;99.90;;;;;;5124388;27;20782;-46
2022/12/30 04:04:20;;;;;;;23.20;6.47;;;4.20;99.90;;;;;;5104296;27;20504;-49
2022/12/30 04:06:46;;;;;;;22.95;5.60;;;4.30;99.90;;;;;;5128894;27;20047;-49
2022/12/30 04:09:12;;;;;;;25.02;6.55;;;4.30;99.90;;;;;;5131622;27;20466;-45
2022/12/30 04:11:38;;;;;;;26.73;5.35;;;4.50;99.90;;;;;;5128408;27;20451;-45
2022/12/30 04:14:03;;;;;;;31.25;5.50;;;4.40;99.90;;;;;;5129684;27;20035;-45
2022/12/30 04:16:30;;;;;;;19.13;4.88;;;4.40;99.90;;;;;;5115004;27;20043;-47
2022/12/30 04:18:56;;;;;;;26.60;5.65;;;4.50;99.90;;;;;;5116215;27;20149;-49
2022/12/30 04:21:22;;;;;;;26.85;5.00;;;4.50;99.90;;;;;;5116440;27;20035;-47
2022/12/30 04:23:47;;;;;;;27.02;6.10;;;4.30;99.90;;;;;;5129227;27;20038;-47
2022/12/30 04:26:13;;;;;;;20.67;4.88;;;4.50;99.90;;;;;;5124878;27;20042;-47
2022/12/30 04:28:39;;;;;;;18.23;4.72;;;4.30;99.90;;;;;;5120714;27;20039;-44
2022/12/30 04:31:05;;;;;;;21.98;5.05;;;4.40;99.90;;;;;;5124750;27;20044;-48
2022/12/30 04:33:31;;;;;;;23.33;4.55;;;4.30;99.90;;;;;;5120317;27;20046;-48
2022/12/30 04:35:57;;;;;;;27.90;4.38;;;4.20;99.90;;;;;;5116056;27;20683;-46
2022/12/30 04:38:23;;;;;;;19.90;5.07;;;4.30;99.90;;;;;;5131470;27;20113;-47
2022/12/30 04:40:49;;;;;;;23.42;4.60;;;4.40;99.90;;;;;;5136294;27;20051;-46
2022/12/30 04:43:14;;;;;;;25.20;4.60;;;4.40;99.90;;;;;;5126553;27;20139;-48
2022/12/30 04:45:40;;;;;;;30.10;4.72;;;4.20;99.90;;;;;;5117644;27;20038;-45
2022/12/30 04:48:06;;;;;;;16.17;4.80;;;4.20;99.90;;;;;;5135363;27;20042;-49
2022/12/30 04:50:31;;;;;;;19.23;4.20;;;4.20;99.90;;;;;;5128072;27;20504;-48
2022/12/30 04:52:57;;;;;;;19.98;5.35;;;4.40;99.90;;;;;;5128465;27;20038;-46
2022/12/30 04:55:23;;;;;;;20.58;4.70;;;4.30;99.90;;;;;;5119708;27;20196;-46
2022/12/30 04:57:48;;;;;;;26.50;4.45;;;4.40;99.90;;;;;;5115882;27;20204;-44
2022/12/30 05:00:14;;;;;;;17.65;4.50;;;4.30;99.90;;;;;;5120929;27;20053;-47
2022/12/30 05:02:41;;;;;;;22.45;5.00;;;4.20;99.90;;;;;;5115103;27;20050;-46
2022/12/30 05:05:07;;;;;;;30.33;5.68;;;4.20;99.90;;;;;;5115436;27;20444;-48
2022/12/30 05:07:33;;;;;;;18.23;4.60;;;4.40;99.90;;;;;;5110198;27;20041;-46
2022/12/30 05:09:58;;;;;;;20.05;5.80;;;4.40;99.90;;;;;;5129168;27;20051;-47
2022/12/30 05:12:24;;;;;;;22.13;5.38;;;4.50;99.90;;;;;;5129875;27;20514;-44
2022/12/30 05:14:49;;;;;;;21.45;5.13;;;4.40;99.90;;;;;;5123344;27;20031;-46
2022/12/30 05:17:15;;;;;;;20.50;4.90;;;4.30;99.90;;;;;;5121702;27;20122;-45
2022/12/30 05:19:41;;;;;;;16.95;5.40;;;4.30;99.90;;;;;;5109814;28;20043;-48
2022/12/30 05:22:06;;;;;;;27.88;7.35;;;4.40;99.90;;;;;;5097541;27;20039;-51
2022/12/30 05:27:16;;;;;;;25.35;6.75;;;4.50;99.90;;;;;;5120976;27;20088;-46
2022/12/30 05:29:42;;;;;;;21.98;6.95;;;4.50;99.90;;;;;;5114342;27;20050;-49
2022/12/30 05:32:08;;;;;;;25.02;6.40;;;4.40;99.90;;;;;;5118165;27;20086;-45
2022/12/30 05:34:34;;;;;;;27.33;6.72;;;4.60;99.90;;;;;;5115836;27;20396;-44
2022/12/30 05:36:59;;;;;;;22.65;6.40;;;4.40;99.90;;;;;;5127384;27;20051;-46
2022/12/30 05:39:25;;;;;;;25.40;6.78;;;4.40;99.90;;;;;;5115375;27;20035;-49
2022/12/30 05:41:50;;;;;;;24.23;6.40;;;4.50;99.90;;;;;;5117701;27;20119;-45
2022/12/30 05:44:16;;;;;;;23.40;6.30;;;4.30;99.90;;;;;;5116287;27;20039;-48
2022/12/30 05:46:42;;;;;;;16.23;6.38;;;4.40;99.90;;;;;;5131246;27;20046;-47
2022/12/30 05:49:07;;;;;;;24.55;6.72;;;4.30;99.90;;;;;;5124785;27;20050;-45
2022/12/30 05:51:33;;;;;;;24.08;7.75;;;4.40;99.90;;;;;;5119005;27;20536;-44
2022/12/30 05:53:58;;;;;;;29.38;7.88;;;4.20;99.90;;;;;;5105355;28;20055;-46
2022/12/30 05:56:24;;;;;;;25.25;7.28;;;4.20;99.90;;;;;;5118261;27;20373;-44
2022/12/30 05:58:50;;;;;;;20.83;7.90;;;4.20;99.90;;;;;;5115081;27;20058;-47
2022/12/30 06:01:15;;;;;;;23.58;6.93;;;4.30;99.90;;;;;;5131376;27;20096;-49
2022/12/30 06:03:41;;;;;;;18.98;6.68;;;4.10;99.90;;;;;;5109272;27;20491;-49
2022/12/30 06:06:08;;;;;;;21.58;6.38;;;4.10;99.90;;;;;;5124831;27;20046;-48
2022/12/30 06:08:35;;;;;;;24.60;6.75;;;4.10;99.90;;;;;;5140553;27;20050;-45
2022/12/30 06:11:00;;;;;;;23.80;6.90;;;4.20;99.90;;;;;;5126225;27;20039;-46
2022/12/30 06:13:26;;;;;;;21.35;6.93;;;4.10;99.90;;;;;;5109881;27;20452;-47
2022/12/30 06:15:52;;;;;;;21.90;7.20;;;4.20;99.90;;;;;;5122554;27;20087;-47
2022/12/30 06:18:18;;;;;;;21.33;7.03;;;4.30;99.90;;;;;;5138851;27;20498;-49
2022/12/30 06:20:44;;;;;;;22.65;6.22;;;4.40;99.90;;;;;;5135333;27;20043;-45
2022/12/30 06:23:10;;;;;;;20.42;6.68;;;4.40;99.90;;;;;;5128024;27;20230;-47
2022/12/30 06:25:36;;;;;;;19.88;6.88;;;4.30;99.90;;;;;;5106870;27;20729;-46
2022/12/30 06:28:01;;;;;;;18.27;5.63;;;4.40;99.90;;;;;;5128322;27;20047;-48
2022/12/30 06:30:27;;;;;;;22.92;6.55;;;4.20;99.90;;;;;;5125270;27;20049;-49
2022/12/30 06:32:56;;;;;;;22.88;6.00;;;4.30;99.90;;;;;;5138216;27;20435;-45
2022/12/30 06:35:22;;;;;;;28.10;7.53;;;4.30;99.90;;;;;;5115204;27;20082;-46
2022/12/30 06:37:48;;;;;;;20.90;5.38;;;4.30;99.90;;;;;;5128949;27;20100;-45
2022/12/30 06:40:14;;;;;;;20.30;6.50;;;4.30;99.90;;;;;;5124237;27;20042;-44
2022/12/30 06:42:40;;;;;;;18.70;6.40;;;4.40;99.90;;;;;;5113796;27;20050;-48
2022/12/30 06:45:06;;;;;;;20.60;5.97;;;4.20;99.90;;;;;;5122439;27;20057;-46
2022/12/30 06:47:32;;;;;;;26.95;8.55;;;4.40;99.90;;;;;;5138916;27;20050;-47
2022/12/30 06:49:58;;;;;;;24.85;5.93;;;4.40;99.90;;;;;;5124556;27;20061;-49
2022/12/30 06:52:24;;;;;;;27.27;7.47;;;4.30;99.90;;;;;;5138634;27;20404;-45
2022/12/30 06:54:49;;;;;;;24.40;6.35;;;4.20;99.90;;;;;;5133625;27;20050;-51
2022/12/30 06:57:15;;;;;;;20.65;5.57;;;4.20;99.90;;;;;;5126072;27;20054;-47
2022/12/30 06:59:41;;;;;;;18.05;4.88;;;4.30;99.90;;;;;;5120146;27;20047;-47
2022/12/30 07:02:08;;;;;;;23.08;5.38;;;4.30;99.90;;;;;;5137430;27;20864;-48
2022/12/30 07:04:34;;;;;;;17.92;4.70;;;4.30;99.90;;;;;;5138349;27;20492;-46
2022/12/30 07:06:59;;;;;;;25.02;5.85;;;4.10;99.90;;;;;;5137611;27;20038;-47
2022/12/30 07:09:25;;;;;;;16.75;5.05;;;4.10;99.90;;;;;;5138453;27;20298;-50
2022/12/30 07:11:51;;;;;;;25.63;6.28;;;4.10;99.90;;;;;;5136718;27;20034;-49
2022/12/30 07:14:16;;;;;;;22.23;6.28;;;4.20;99.90;;;;;;5124223;27;20474;-46
2022/12/30 07:16:42;;;;;;;21.52;5.20;;;4.10;99.90;;;;;;5127914;27;20520;-47
2022/12/30 07:19:08;;;;;;;18.33;5.05;;;4.10;99.90;;;;;;5131136;27;20050;-47
2022/12/30 07:21:33;;;;;;;24.20;5.05;;;4.10;99.90;;;;;;5127044;27;20046;-49
2022/12/30 07:23:59;;;;;;;18.27;4.85;;;4.20;99.90;;;;;;5137168;27;20077;-44
2022/12/30 07:26:25;;;;;;;15.00;4.97;;;4.20;99.90;;;;;;5129074;27;20062;-48
2022/12/30 07:28:55;;;;;;;21.75;5.20;;;4.20;99.90;;;;;;5133560;27;20039;-46
2022/12/30 07:31:21;;;;;;;26.45;5.28;;;4.20;99.90;;;;;;5129017;27;20047;-47
2022/12/30 07:33:46;;;;;;;19.67;5.13;;;4.10;99.90;;;;;;5130064;27;20047;-45
2022/12/30 07:36:12;;;;;;;18.83;4.85;;;4.20;99.90;;;;;;5126995;27;20054;-45
2022/12/30 07:38:38;;;;;;;24.27;5.20;;;4.00;99.90;;;;;;5134412;27;20507;-45
2022/12/30 07:41:04;;;;;;;24.52;6.68;;;4.10;99.90;;;;;;5128439;27;20074;-43
2022/12/30 07:43:30;;;;;;;22.38;5.57;;;4.10;99.90;;;;;;5123124;27;20516;-46
2022/12/30 07:45:56;;;;;;;19.08;4.45;;;4.10;99.90;;;;;;5129877;27;20559;-47
2022/12/30 07:48:21;;;;;;;20.48;5.47;;;4.10;99.90;;;;;;5137040;27;20039;-47
2022/12/30 07:50:47;;;;;;;18.33;4.28;;;4.00;99.90;;;;;;5136502;27;20496;-46
2022/12/30 07:53:13;;;;;;;17.13;4.43;;;4.00;99.90;;;;;;5127159;27;20043;-46
2022/12/30 07:55:40;;;;;;;23.75;4.50;;;4.10;99.90;;;;;;5119155;27;20028;-44
2022/12/30 07:58:07;;;;;;;23.58;5.10;;;4.10;99.90;;;;;;5117984;27;20039;-47
2022/12/30 08:00:33;;;;;;;20.13;4.90;;;4.20;99.90;;;;;;5116673;27;20418;-49
2022/12/30 08:02:59;;;;;;;24.52;5.45;;;4.20;99.90;;;;;;5118986;27;20050;-45
2022/12/30 08:05:24;;;;;;;21.20;4.90;;;4.20;99.90;;;;;;5125332;27;20499;-45
2022/12/30 08:07:53;;;;;;;21.88;7.03;;;4.10;99.90;;;;;;5114059;27;20300;-49
2022/12/30 08:10:20;;;;;;;21.92;6.22;;;4.20;99.90;;;;;;5115209;27;20042;-47
2022/12/30 08:12:46;;;;;;;15.18;4.45;;;4.20;99.90;;;;;;5119067;27;20844;-47
2022/12/30 08:15:12;;;;;;;22.63;4.57;;;4.20;99.90;;;;;;5120370;27;20047;-47
2022/12/30 08:17:38;;;;;;;14.38;4.03;;;4.20;99.90;;;;;;5119117;27;20034;-47
2022/12/30 08:20:06;;;;;;;19.08;4.60;;;4.20;99.90;;;;;;5120600;27;20039;-50
2022/12/30 08:22:32;;;;;;;18.08;4.43;;;4.30;99.90;;;;;;5114598;27;20118;-48
2022/12/30 08:24:57;;;;;;;19.95;5.80;;;4.30;99.90;;;;;;5115180;27;20047;-48
2022/12/30 08:27:23;;;;;;;17.40;4.65;;;4.20;99.90;;;;;;5125144;27;20541;-46
2022/12/30 08:29:49;;;;;;;22.40;4.82;;;4.40;99.90;;;;;;5117963;27;20457;-45
2022/12/30 08:32:14;;;;;;;23.30;5.53;;;4.30;99.90;;;;;;5114725;27;20271;-45
2022/12/30 08:34:40;;;;;;;24.10;5.47;;;4.30;99.90;;;;;;5114223;27;20046;-49
2022/12/30 08:37:05;;;;;;;21.83;4.22;;;4.30;99.90;;;;;;5118788;27;20427;-47
2022/12/30 08:39:31;;;;;;;25.58;5.15;;;4.40;99.90;;;;;;5119213;27;20046;-51
2022/12/30 08:41:57;;;;;;;19.77;5.15;;;4.40;99.90;;;;;;5113451;27;20087;-48
2022/12/30 08:44:24;;;;;;;24.10;5.55;;;4.40;99.90;;;;;;5123667;27;20031;-44
2022/12/30 08:46:51;;;;;;;23.13;5.07;;;4.50;99.90;;;;;;5134695;27;20544;-49
2022/12/30 08:49:16;;;;;;;20.30;5.68;;;4.50;99.90;;;;;;5134095;27;20034;-47
2022/12/30 08:51:42;;;;;;;24.70;8.18;;;4.40;99.90;;;;;;5129632;27;20127;-51
2022/12/30 08:54:08;;;;;;;26.63;6.35;;;4.50;99.90;;;;;;5128413;27;20162;-49
2022/12/30 08:56:36;;;;;;;22.05;7.15;;;4.40;99.90;;;;;;5102266;27;20047;-49
2022/12/30 08:59:03;;;;;;;20.48;6.20;;;4.50;99.90;;;;;;5115776;27;20127;-47
2022/12/30 09:01:33;;;;;;;16.85;5.95;;;4.50;99.90;;;;;;5129038;27;20092;-47
2022/12/30 09:03:59;;;;;;;14.65;5.85;;;4.50;99.90;;;;;;5127909;27;20089;-46
2022/12/30 09:06:27;;;;;;;19.20;4.70;;;4.50;99.90;;;;;;5122239;27;20594;-46
2022/12/30 09:08:55;;;;;;;20.85;6.10;;;4.50;99.90;;;;;;5118133;27;20049;-46
2022/12/30 09:11:28;;;;;;;20.98;4.82;;;4.60;99.90;;;;;;5115716;27;20058;-48
2022/12/30 09:13:55;;;;;;;19.80;5.32;;;4.50;99.90;;;;;;5124383;27;20446;-47
2022/12/30 09:16:21;;;;;;;21.10;6.15;;;4.60;99.90;;;;;;5117251;27;20039;-48
2022/12/30 09:18:48;;;;;;;23.48;6.25;;;4.60;99.90;;;;;;5116104;27;20080;-47
2022/12/30 09:21:14;;;;;;;21.88;5.47;;;4.60;99.90;;;;;;5102095;27;20038;-44
2022/12/30 09:23:39;;;;;;;22.75;5.90;;;4.60;99.90;;;;;;5132952;27;20035;-48
2022/12/30 09:26:08;;;;;;;19.05;5.82;;;4.70;99.90;;;;;;5126491;27;20610;-50
2022/12/30 09:28:34;;;;;;;23.92;5.47;;;4.60;99.90;;;;;;5127368;27;20034;-47
2022/12/30 09:31:00;;;;;;;19.63;6.32;;;4.80;99.90;;;;;;5082500;27;20501;-47
2022/12/30 09:33:26;;;;;;;19.02;5.88;;;4.70;99.90;;;;;;5125361;27;20050;-45
2022/12/30 09:35:52;;;;;;;18.55;5.85;;;4.80;99.90;;;;;;5121757;27;20061;-49
2022/12/30 09:38:18;;;;;;;18.35;5.45;;;4.80;99.90;;;;;;5137097;27;20043;-48
2022/12/30 09:40:48;;;;;;;20.10;6.03;;;5.00;99.90;;;;;;5129341;27;20137;-48
2022/12/30 09:43:36;;;;;;;18.58;5.25;;;5.00;99.90;;;;;;5121002;27;20169;-44
2022/12/30 09:46:05;;;;;;;17.13;5.07;;;5.00;99.90;;;;;;5128000;27;20345;-46
2022/12/30 09:48:39;;;;;;;15.30;5.07;;;5.00;99.90;;;;;;5140536;27;20042;-44
2022/12/30 09:51:10;;;;;;;18.52;5.38;;;5.10;99.90;;;;;;5126443;27;20106;-48
2022/12/30 09:54:00;;;;;;;17.48;5.13;;;5.20;99.90;;;;;;5139932;27;20166;-50
2022/12/30 09:56:31;;;;;;;15.82;4.57;;;5.20;99.90;;;;;;5131780;27;20167;-47
2022/12/30 09:59:18;;;;;;;18.02;6.00;;;5.20;99.90;;;;;;5119705;27;20375;-51
2022/12/30 10:01:53;;;;;;;14.93;5.00;;;5.20;99.90;;;;;;5124443;27;20045;-47
2022/12/30 10:04:20;;;;;;;19.13;4.97;;;5.20;99.90;;;;;;5112404;27;20050;-48
2022/12/30 10:07:22;;;;;;;21.30;5.22;;;5.40;99.90;;;;;;5110197;27;20039;-52
2022/12/30 10:09:56;;;;;;;17.83;4.97;;;5.40;99.90;;;;;;5065249;28;20063;-45
2022/12/30 10:12:56;;;;;;;13.85;5.07;;;5.40;99.90;;;;;;5057286;28;20064;-47
2022/12/30 10:15:46;;;;;;;16.65;5.18;;;5.50;99.90;;;;;;5059779;28;20181;-47
2022/12/30 10:18:20;;;;;;;17.35;5.45;;;5.50;99.90;;;;;;5062543;28;20048;-50
2022/12/30 10:20:52;;;;;;;17.85;5.82;;;5.60;99.90;;;;;;5056847;28;20139;-50
2022/12/30 10:23:38;;;;;;;16.05;5.25;;;5.60;99.90;;;;;;5068326;28;20048;-44
2022/12/30 10:26:22;;;;;;;16.67;5.65;;;5.70;99.90;;;;;;5059768;28;20565;-46
2022/12/30 10:28:50;;;;;;;;;;;5.70;99.90;;;;;;5046990;28;20117;-45
2022/12/30 10:31:20;;;;;;;13.48;4.80;;;5.70;99.90;;;;;;5060437;28;19931;-49
2022/12/30 10:33:53;;;;;;;15.15;5.00;;;5.70;99.90;;;;;;5067512;28;20671;-48
2022/12/30 10:36:28;;;;;;;11.75;4.10;;;5.80;99.90;;;;;;5043373;28;20451;-47
2022/12/30 10:39:05;;;;;;;11.48;4.80;;;5.80;99.90;;;;;;5066035;28;20083;-50
2022/12/30 10:41:50;;;;;;;14.55;4.90;;;5.80;99.90;;;;;;5066213;28;20060;-47
2022/12/30 10:44:29;;;;;;;18.75;5.28;;;5.90;99.90;;;;;;5060972;28;20956;-48
2022/12/30 10:47:32;;;;;;;12.30;4.78;;;5.80;99.90;;;;;;5081563;27;20065;-46
2022/12/30 10:50:16;;;;;;;15.23;5.07;;;5.90;99.90;;;;;;5057422;28;20063;-45
2022/12/30 10:52:42;;;;;;;15.82;5.65;;;5.90;99.90;;;;;;5087299;28;20264;-48
2022/12/30 10:55:23;;;;;;;19.67;5.72;;;5.90;99.90;;;;;;5087733;28;20056;-46
2022/12/30 10:57:55;;;;;;;13.50;5.57;;;5.90;99.90;;;;;;5085297;28;20100;-47
2022/12/30 11:00:22;;;;;;;13.10;5.60;;;6.00;99.90;;;;;;5083346;28;20608;-49
2022/12/30 11:02:58;;;;;;;12.30;4.00;;;6.00;99.90;;;;;;5077056;28;20149;-46
2022/12/30 11:05:39;;;;;;;11.60;4.10;;;6.00;99.90;;;;;;5082633;28;20051;-46
2022/12/30 11:08:17;;;;;;;13.73;4.60;;;6.10;99.90;;;;;;5064223;28;20105;-45
2022/12/30 11:10:43;;;;;;;10.38;3.88;;;6.20;99.90;;;;;;5093646;28;20055;-45
2022/12/30 11:15:58;;;;;;;10.73;3.65;;;6.10;99.90;;;;;;5090937;28;20532;-47
2022/12/30 11:18:29;;;;;;;8.95;4.38;;;6.20;99.90;;;;;;5082486;28;20135;-48
2022/12/30 11:20:58;;;;;;;10.95;3.92;;;6.20;99.90;;;;;;5087710;28;20052;-45
2022/12/30 11:23:39;;;;;;;10.77;4.03;;;6.30;99.90;;;;;;5087148;28;20051;-46
2022/12/30 11:26:19;;;;;;;9.65;3.95;;;6.30;99.90;;;;;;5109234;27;20047;-44
2022/12/30 11:28:51;;;;;;;11.95;3.92;;;6.30;99.90;;;;;;5124393;27;20047;-46
2022/12/30 11:31:18;;;;;;;8.13;3.72;;;6.30;99.90;;;;;;5128015;27;20218;-48
2022/12/30 11:33:55;;;;;;;10.70;3.35;;;6.40;99.90;;;;;;5138174;27;20355;-46
2022/12/30 11:36:26;;;;;;;14.23;3.88;;;6.40;99.90;;;;;;5106506;27;20047;-47
2022/12/30 11:38:53;;;;;;;10.30;3.40;;;6.40;99.90;;;;;;5123206;27;20513;-49
2022/12/30 11:41:20;;;;;;;8.13;2.67;;;6.50;99.90;;;;;;5137646;27;20050;-47
2022/12/30 11:44:11;;;;;;;9.82;3.15;;;6.50;99.90;;;;;;5133415;27;20110;-50
2022/12/30 11:46:38;;;;;;;12.32;4.10;;;6.60;99.90;;;;;;5133421;27;20142;-50
2022/12/30 11:49:26;;;;;;;11.75;3.03;;;6.60;99.90;;;;;;5127675;27;20409;-47
2022/12/30 11:51:57;;;;;;;9.10;2.97;;;6.60;99.90;;;;;;5123828;27;20051;-46
2022/12/30 11:54:26;;;;;;;6.95;2.90;;;6.70;99.90;;;;;;5137469;27;20047;-48
2022/12/30 11:56:57;;;;;;;12.27;3.00;;;6.60;99.90;;;;;;5122499;27;20051;-47
2022/12/30 11:59:30;;;;;;;7.40;2.90;;;6.70;99.90;;;;;;5136773;27;20073;-48
2022/12/30 12:02:00;;;;;;;7.88;2.35;;;6.70;99.90;;;;;;5137634;27;20053;-47
2022/12/30 12:04:39;;;;;;;7.30;2.70;;;6.70;99.90;;;;;;5123489;27;20750;-49
2022/12/30 12:07:26;;;;;;;7.18;3.20;;;6.70;99.90;;;;;;5136782;27;20050;-47
2022/12/30 12:09:58;;;;;;;9.80;2.40;;;6.80;99.90;;;;;;5136497;27;20068;-48
2022/12/30 12:12:27;;;;;;;10.38;3.08;;;6.80;99.90;;;;;;5136611;27;20587;-49
2022/12/30 12:15:28;;;;;;;10.50;3.10;;;6.80;99.90;;;;;;5127508;27;20152;-44
2022/12/30 12:18:09;;;;;;;11.40;2.53;;;6.90;99.90;;;;;;5119132;27;20058;-47
2022/12/30 12:20:49;;;;;;;7.85;2.70;;;6.80;99.90;;;;;;5115568;27;20059;-44
2022/12/30 12:23:21;;;;;;;11.07;3.35;;;6.90;99.90;;;;;;5117388;27;20074;-44
2022/12/30 12:26:22;;;;;;;8.00;2.70;;;7.00;99.90;;;;;;5129416;27;20497;-50
2022/12/30 12:28:50;;;;;;;9.00;2.75;;;7.00;99.90;;;;;;5130273;27;20058;-47
2022/12/30 12:31:29;;;;;;;7.88;2.53;;;7.00;99.90;;;;;;5127090;27;20337;-45
2022/12/30 12:34:22;;;;;;;8.07;2.40;;;7.10;99.90;;;;;;5131437;27;20126;-44
2022/12/30 12:37:09;;;;;;;7.75;2.47;;;7.20;99.90;;;;;;5129104;27;20058;-47
2022/12/30 12:39:59;;;;;;;6.63;1.90;;;7.20;99.90;;;;;;5129212;27;20178;-50
2022/12/30 12:42:50;;;;;;;7.82;2.30;;;7.20;99.90;;;;;;5132637;27;20103;-47
2022/12/30 12:45:27;;;;;;;6.93;2.80;;;7.20;99.90;;;;;;5115110;27;20499;-51
2022/12/30 12:48:17;;;;;;;11.32;2.30;;;7.30;99.90;;;;;;5130141;27;20043;-46
2022/12/30 12:50:50;;;;;;;7.05;1.92;;;7.30;99.90;;;;;;5126628;27;20050;-46
2022/12/30 12:53:45;;;;;;;;;;;7.20;99.90;;;;;;5104382;27;20486;-46
2022/12/30 12:56:25;;;;;;;13.85;3.47;;;7.30;99.90;;;;;;5123966;27;19979;-46
2022/12/30 12:59:13;;;;;;;5.53;2.00;;;7.40;99.90;;;;;;5115856;27;20051;-51
2022/12/30 13:02:04;;;;;;;10.70;2.70;;;7.40;99.90;;;;;;5136610;27;20425;-48
2022/12/30 13:05:01;;;;;;;15.18;2.67;;;7.40;99.90;;;;;;5122305;27;20161;-47
2022/12/30 13:07:56;;;;;;;5.82;2.38;;;7.50;99.90;;;;;;5121217;27;20126;-50
2022/12/30 13:10:44;;;;;;;7.47;2.13;;;7.50;99.90;;;;;;5127501;27;20051;-50
2022/12/30 13:13:28;;;;;;;5.70;1.70;;;7.50;99.90;;;;;;5136738;27;20043;-46
2022/12/30 13:16:06;;;;;;;11.60;3.05;;;7.60;99.90;;;;;;5134961;27;20122;-49
2022/12/30 13:18:35;;;;;;;7.80;2.10;;;7.60;99.90;;;;;;5137103;27;20061;-49
2022/12/30 13:21:05;;;;;;;7.38;3.15;;;7.70;99.90;;;;;;5137003;27;20856;-47
2022/12/30 13:23:35;;;;;;;8.40;2.47;;;7.70;99.90;;;;;;5123157;27;20102;-48
2022/12/30 13:26:03;;;;;;;8.82;2.03;;;7.70;99.90;;;;;;5114945;27;20471;-46
2022/12/30 13:28:31;;;;;;;8.15;2.65;;;7.80;99.90;;;;;;5129814;27;20045;-46
2022/12/30 13:31:16;;;;;;;7.90;1.95;;;7.80;99.90;;;;;;5099362;28;20624;-47
2022/12/30 13:34:12;;;;;;;5.85;2.13;;;7.80;99.90;;;;;;5115741;27;20120;-45
2022/12/30 13:37:05;;;;;;;9.85;2.65;;;7.90;99.90;;;;;;5110759;27;20055;-46
2022/12/30 13:39:46;;;;;;;7.17;2.27;;;7.90;99.90;;;;;;5136621;27;20552;-49
2022/12/30 13:42:24;;;;;;;6.93;2.58;;;7.90;99.90;;;;;;5134039;27;20043;-48
2022/12/30 13:44:50;;;;;;;8.85;2.70;;;8.00;99.90;;;;;;5117672;27;20071;-44
2022/12/30 13:47:40;;;;;;;9.02;2.40;;;8.00;99.90;;;;;;5134868;27;20805;-49
2022/12/30 13:50:18;;;;;;;7.90;2.10;;;8.10;99.90;;;;;;5031371;28;20064;-48
2022/12/30 13:52:53;;;;;;;8.40;2.90;;;8.10;99.90;;;;;;5014506;28;20069;-49
2022/12/30 13:55:47;;;;;;;8.43;2.38;;;8.10;99.90;;;;;;5019625;28;20061;-46
2022/12/30 13:58:29;;;;;;;4.65;1.70;;;8.10;99.90;;;;;;5025204;28;20057;-48
2022/12/30 14:01:35;;;;;;;7.35;2.20;;;8.10;99.90;;;;;;5029460;28;20065;-48
2022/12/30 14:04:09;;;;;;;6.47;2.00;;;8.10;99.90;;;;;;4955947;28;20472;-48
2022/12/30 14:06:52;;;;;;;8.60;2.47;;;8.00;99.90;;;;;;4971496;28;20061;-49